Aérodrome :
LOGIN :

S'inscrire | Disclaimer

   EN    FR    IT 

 










Légende :    VFR   VFR Marginal   IFR   IFR Intensif   IFR Très Intensif
Visi : 
Plafond : 
>= 8 km
>= 3000ft
5 à 8 km
1000 à 3000 ft
1500m à 5 km
500 à 1000 ft
800 à 1500m
200 à 500 ft
< 800m
< 200 ft
Symboles :   Orages  Brouillard  Fortes neiges  Fortes précipitations  Vent > 20 kt
SIGMETs :   Divers  Orages  Givrage  Turbulence  Onde Orograph.  Cendres Volcan.







- Altitude de l'aérodrome : 36 ft
- Code IATA : LTQ
- Voir les cartes d'approche


LFAT - Le Touquet

DERNIER METAR :
  • 200930Z AUTO 08007KT 050V120 8000 FEW019/// 16/11 Q1023 NOSIG

METARs EXPIRÉS :
  • 200900Z AUTO 10007KT 060V130 8000 SCT017/// 15/10 Q1023 NOSIG
  • 200830Z AUTO 07006KT 030V110 8000 SCT015 14/11 Q1023 NOSIG
  • 200800Z AUTO 08007KT 050V110 8000 SCT011 14/10 Q1023 NOSIG
  • 200730Z AUTO 07006KT 040V110 7000 BKN009 12/10 Q1023 BECMG NSC
  • 200700Z AUTO 07007KT 040V100 5000 BR OVC008 11/09 Q1023 BECMG NSC
  • 200630Z AUTO 09005KT 060V120 5000 BR OVC008 11/09 Q1023 BECMG NSC

TAF TAF LFAT
Valide du 20 à 09h jusqu'au 20 à 18h UTC


200800Z 2009/2018 08008KT CAVOK
ATIS : +33 3 21 06 62 84
Pas de NOTAMs connus pour ce terrain.



MET'MAP, la Météo Aéronautique d'un coup d'oeil ! - Copyright ORBIFLY Décembre 2007 - Disclaimer

ORBIFLY MET'MAP TEAM :

Programmation & Développement : Alexandra Zaïnal
Conception & Développement : Baudouin d'Aumeries
Co-Programmation & Développement : Marc-Olivier Méhu
Soutien technique & logistique : Manuel Goepfert

Contact : metmap@orbifly.com




SOURCES & CREDITS :

   NOAA